• Join FlightAware (Why Join?)
  • Login
  • US Flag 
08:47PM EDT


 

Airport Tracker/Info


-or-


 

Live Flight TrackerFlight Track Log ✈ N143DE ✈ 26-Aug-2013 ✈ KRYY - KNQA

Flight Track Log - Related Links

Times and Time Zones

All times are in EDT time to prevent confusion due to time zone crossing. See the N143DE flight status page for this flight to view local times or setup timezone preferences in your user account.

Time Position Orientation Groundspeed Altitude Reporting Facility
EDT Latitude Longitude Course Direction KTS MPH feet Rate Location/Type
07:34AM 34.0500 -84.5667 301° West 179 206 2,700  Level Atlanta TRACON
07:35AM 34.0667 -84.6000 301° West 231 266 4,100 1,680 Climbing Atlanta TRACON
07:36AM 34.0500 -84.6667 253° West 198 228 6,000 1,500 Climbing Atlanta TRACON
07:37AM 34.0167 -84.7167 231° Southwest 217 250 7,000 480 Climbing Atlanta TRACON
07:38AM 33.9833 -84.7833 239° Southwest 231 266 7,000  Level Atlanta TRACON
07:39AM 33.9500 -84.8500 239° Southwest 235 270 7,000  Level Atlanta TRACON
07:40AM 33.9311 -84.8875 239° Southwest 231 266 7,000  Level Atlanta Center
07:41AM 33.8972 -84.9547 239° Southwest 237 273 7,000  Level Atlanta Center
07:42AM 33.8675 -85.0169 240° Southwest 237 273 7,000 420 Level Atlanta Center
07:43AM 33.8378 -85.0817 241° Southwest 232 267 7,900 780 Climbing Atlanta Center
07:44AM 33.8081 -85.1414 239° Southwest 220 253 8,600 720 Climbing Atlanta Center
07:45AM 33.7886 -85.2136 252° West 220 253 9,400 900 Climbing Atlanta Center
07:46AM 33.8067 -85.2839 287° West 229 264 10,400 900 Climbing Atlanta Center
07:47AM 33.8228 -85.3567 285° West 224 258 11,200 780 Climbing Atlanta Center
07:48AM 33.8408 -85.4269 287° West 224 258 12,000 720 Climbing Atlanta Center
07:49AM 33.8525 -85.4997 281° West 224 258 12,700 600 Climbing Atlanta Center
07:50AM 33.8661 -85.5650 284° West 224 258 13,300 600 Climbing Atlanta Center
07:51AM 33.8861 -85.6403 288° West 224 258 13,900 600 Climbing Atlanta Center
07:52AM 33.9039 -85.7133 286° West 224 258 14,600 660 Climbing Atlanta Center
07:53AM 33.9175 -85.7861 283° West 224 258 15,300 660 Climbing Atlanta Center
07:54AM 33.9331 -85.8692 283° West 224 258 16,000 600 Climbing Atlanta Center
07:55AM 33.9464 -85.9469 282° West 224 258 16,500 540 Climbing Atlanta Center
07:56AM 33.9642 -86.0200 286° West 229 264 17,100 540 Climbing Atlanta Center
07:57AM 33.9794 -86.0981 283° West 234 269 17,600 300 Climbing Atlanta Center
07:58AM 34.0053 -86.1714 293° West 240 276 17,800 360 Climbing Atlanta Center
07:59AM 34.0333 -86.2422 296° West 245 282 18,400 480 Climbing Atlanta Center
08:01AM 34.0967 -86.3842 298° West 248 285 19,400 420 Climbing Memphis Center
08:02AM 34.1239 -86.4581 294° West 242 278 19,800 300 Climbing Memphis Center
08:03AM 34.1514 -86.5322 294° West 242 278 20,000 60 Climbing Memphis Center
08:04AM 34.1786 -86.6089 293° West 242 278 20,000  Level Memphis Center
08:05AM 34.2061 -86.6853 294° West 247 284 20,000  Level Memphis Center
08:06AM 34.2375 -86.7644 296° West 252 290 20,000  Level Memphis Center
08:07AM 34.2669 -86.8411 295° West 252 290 20,000  Level Memphis Center
08:08AM 34.2983 -86.9203 296° West 252 290 20,000  Level Memphis Center
08:09AM 34.3300 -87.0119 293° West 266 306 20,000  Level Memphis Center
08:10AM 34.3592 -87.0939 293° West 259 298 20,000  Level Memphis Center
08:11AM 34.3883 -87.1633 297° West 257 296 20,000  Level Memphis Center
08:12AM 34.4153 -87.2403 293° West 252 290 20,000  Level Memphis Center
08:13AM 34.4464 -87.3197 295° West 252 290 20,000  Level Memphis Center
08:14AM 34.4775 -87.3992 295° West 252 290 20,000  Level Memphis Center
08:15AM 34.5064 -87.4739 295° West 257 296 20,000  Level Memphis Center
08:16AM 34.5333 -87.5536 292° West 251 289 20,000  Level Memphis Center
08:17AM 34.5642 -87.6333 295° West 251 289 20,000  Level Memphis Center
08:18AM 34.5911 -87.7106 293° West 251 289 20,000  Level Memphis Center
08:19AM 34.6217 -87.7828 297° West 251 289 20,000  Level Memphis Center
08:20AM 34.6483 -87.8628 292° West 251 289 20,000  Level Memphis Center
08:21AM 34.6769 -87.9428 294° West 251 289 20,000  Level Memphis Center
08:22AM 34.7056 -88.0203 294° West 257 296 20,000  Level Memphis Center
08:23AM 34.7342 -88.1006 293° West 252 290 20,000 -120 Level Memphis Center
08:24AM 34.7650 -88.1906 293° West 257 296 19,800 -480 Descending Memphis Center
08:25AM 34.7936 -88.2758 292° West 263 303 19,100 -660 Descending Memphis Center
08:26AM 34.8264 -88.3586 296° West 274 315 18,500 -660 Descending Memphis Center
08:27AM 34.8550 -88.4464 292° West 274 315 17,800 -540 Descending Memphis Center
08:28AM 34.8894 -88.5292 297° West 274 315 17,500 -600 Descending Memphis Center
08:29AM 34.9181 -88.6197 291° West 274 315 16,600 -1,080 Descending Memphis Center
08:30AM 34.9525 -88.7078 296° West 279 321 15,400 -1,320 Descending Memphis Center
08:31AM 34.9828 -88.7958 293° West 279 321 14,000 -2,040 Descending Memphis Center
08:32AM 35.0131 -88.8864 292° West 284 327 11,400 -2,520 Descending Memphis Center
08:33AM 35.0456 -88.9722 295° West 285 328 9,000 -2,220 Descending Memphis Center
08:34AM 35.0756 -89.0556 294° West 280 322 7,000 -1,500 Descending Memphis Center
08:35AM 35.1033 -89.1286 295° West 259 298 6,000 -540 Descending Memphis Center
08:36AM 35.1272 -89.2044 291° West 247 284 6,000  Level Memphis Center
08:37AM 35.1486 -89.2650 293° West 230 265 6,000 -300 Level Memphis Center
08:38AM 35.1719 -89.3333 293° West 225 259 5,400 -780 Descending Memphis Center
08:39AM 35.1956 -89.4017 293° West 225 259 4,500 -900 Descending Memphis Center
08:40AM 35.2189 -89.4675 293° West 225 259 3,600 -780 Descending Memphis Center
08:41AM 35.2444 -89.5358 295° West 225 259 3,000 -300 Descending Memphis Center
08:42AM 35.2658 -89.5992 292° West 209 241 3,000  Level Memphis Center
08:43AM 35.2892 -89.6625 294° West 209 241 3,000 -60 Level Memphis Center
08:44AM 35.3103 -89.7286 291° West 209 241 2,900 -180 Descending Memphis Center
08:45AM 35.3314 -89.7894 293° West 209 241 2,700 1,500 Descending Memphis Center
08:46AM 35.3525 -89.8531 292° West 209 241 6,000 1,620 Climbing Memphis Center
08:47AM 35.3736 -89.9167 292° West 209 241 6,000  Level Memphis Center
08:48AM 35.3947 -89.9800 292° West 209 241 6,000  Level Memphis Center
08:50AM 35.3500 -89.8667 112° Southeast  Level FlightAware Approximate